sensor_id;sensor_type;location;lat;lon;timestamp;temperature;humidity
837;DHT22;400;53.550;9.932;2022-10-31T00:01:11;16.00;99.90
837;DHT22;400;53.550;9.932;2022-10-31T00:03:37;16.00;99.90
837;DHT22;400;53.550;9.932;2022-10-31T00:06:06;15.90;99.90
837;DHT22;400;53.550;9.932;2022-10-31T00:08:34;15.90;99.90
837;DHT22;400;53.550;9.932;2022-10-31T00:11:01;15.90;99.90
837;DHT22;400;53.550;9.932;2022-10-31T00:13:29;15.80;99.90
837;DHT22;400;53.550;9.932;2022-10-31T00:15:56;15.80;99.90
837;DHT22;400;53.550;9.932;2022-10-31T00:18:23;15.90;99.90
837;DHT22;400;53.550;9.932;2022-10-31T00:20:58;15.90;99.90
837;DHT22;400;53.550;9.932;2022-10-31T00:23:25;15.80;99.90
837;DHT22;400;53.550;9.932;2022-10-31T00:25:53;15.80;99.90
837;DHT22;400;53.550;9.932;2022-10-31T00:28:21;15.90;99.90
837;DHT22;400;53.550;9.932;2022-10-31T00:30:49;15.90;99.90
837;DHT22;400;53.550;9.932;2022-10-31T00:33:15;15.80;99.90
837;DHT22;400;53.550;9.932;2022-10-31T00:35:42;15.80;99.90
837;DHT22;400;53.550;9.932;2022-10-31T00:38:09;15.80;99.90
837;DHT22;400;53.550;9.932;2022-10-31T00:40:36;15.80;99.90
837;DHT22;400;53.550;9.932;2022-10-31T00:43:04;15.70;99.90
837;DHT22;400;53.550;9.932;2022-10-31T00:45:31;15.60;99.90
837;DHT22;400;53.550;9.932;2022-10-31T00:47:59;15.60;99.90
837;DHT22;400;53.550;9.932;2022-10-31T00:50:26;15.70;99.90
837;DHT22;400;53.550;9.932;2022-10-31T00:52:53;15.70;99.90
837;DHT22;400;53.550;9.932;2022-10-31T00:55:23;15.60;99.90
837;DHT22;400;53.550;9.932;2022-10-31T00:57:54;15.40;99.90
837;DHT22;400;53.550;9.932;2022-10-31T01:00:24;15.30;99.90
837;DHT22;400;53.550;9.932;2022-10-31T01:02:54;15.20;99.90
837;DHT22;400;53.550;9.932;2022-10-31T01:05:24;15.30;99.90
837;DHT22;400;53.550;9.932;2022-10-31T01:07:51;15.30;99.90
837;DHT22;400;53.550;9.932;2022-10-31T01:10:18;15.30;99.90
837;DHT22;400;53.550;9.932;2022-10-31T01:12:46;15.30;99.90
837;DHT22;400;53.550;9.932;2022-10-31T01:15:16;15.30;99.90
837;DHT22;400;53.550;9.932;2022-10-31T01:17:43;15.30;99.90
837;DHT22;400;53.550;9.932;2022-10-31T01:20:11;15.30;99.90
837;DHT22;400;53.550;9.932;2022-10-31T01:22:40;15.20;99.90
837;DHT22;400;53.550;9.932;2022-10-31T01:25:08;15.40;99.90
837;DHT22;400;53.550;9.932;2022-10-31T01:27:35;15.40;99.90
837;DHT22;400;53.550;9.932;2022-10-31T01:30:03;15.30;99.90
837;DHT22;400;53.550;9.932;2022-10-31T01:32:30;15.40;99.90
837;DHT22;400;53.550;9.932;2022-10-31T01:34:57;15.30;99.90
837;DHT22;400;53.550;9.932;2022-10-31T01:37:24;15.40;99.90
837;DHT22;400;53.550;9.932;2022-10-31T01:39:52;15.30;99.90
837;DHT22;400;53.550;9.932;2022-10-31T01:42:21;15.30;99.90
837;DHT22;400;53.550;9.932;2022-10-31T01:44:55;15.20;99.90
837;DHT22;400;53.550;9.932;2022-10-31T01:47:36;15.00;99.90
837;DHT22;400;53.550;9.932;2022-10-31T01:50:12;15.10;99.90
837;DHT22;400;53.550;9.932;2022-10-31T01:52:41;15.00;99.90
837;DHT22;400;53.550;9.932;2022-10-31T01:55:13;14.90;99.90
837;DHT22;400;53.550;9.932;2022-10-31T01:57:45;15.00;99.90
837;DHT22;400;53.550;9.932;2022-10-31T02:00:14;14.90;99.90
837;DHT22;400;53.550;9.932;2022-10-31T02:02:42;14.90;99.90
837;DHT22;400;53.550;9.932;2022-10-31T02:05:11;14.80;99.90
837;DHT22;400;53.550;9.932;2022-10-31T02:07:42;14.80;99.90
837;DHT22;400;53.550;9.932;2022-10-31T02:10:11;14.80;99.90
837;DHT22;400;53.550;9.932;2022-10-31T02:12:40;14.90;99.90
837;DHT22;400;53.550;9.932;2022-10-31T02:15:15;14.90;99.90
837;DHT22;400;53.550;9.932;2022-10-31T02:17:43;15.00;99.90
837;DHT22;400;53.550;9.932;2022-10-31T02:20:14;15.00;99.90
837;DHT22;400;53.550;9.932;2022-10-31T02:23:08;15.00;99.90
837;DHT22;400;53.550;9.932;2022-10-31T02:26:07;15.00;99.90
837;DHT22;400;53.550;9.932;2022-10-31T02:28:59;15.00;99.90
837;DHT22;400;53.550;9.932;2022-10-31T02:31:39;15.00;99.90
837;DHT22;400;53.550;9.932;2022-10-31T02:34:20;14.90;99.90
837;DHT22;400;53.550;9.932;2022-10-31T02:36:54;15.00;99.90
837;DHT22;400;53.550;9.932;2022-10-31T02:39:25;14.90;99.90
837;DHT22;400;53.550;9.932;2022-10-31T02:42:03;14.90;99.90
837;DHT22;400;53.550;9.932;2022-10-31T02:44:37;14.90;99.90
837;DHT22;400;53.550;9.932;2022-10-31T02:47:10;14.90;99.90
837;DHT22;400;53.550;9.932;2022-10-31T02:49:40;14.90;99.90
837;DHT22;400;53.550;9.932;2022-10-31T02:52:19;14.90;99.90
837;DHT22;400;53.550;9.932;2022-10-31T02:54:47;14.90;99.90
837;DHT22;400;53.550;9.932;2022-10-31T02:57:17;14.80;99.90
837;DHT22;400;53.550;9.932;2022-10-31T02:59:47;14.90;99.90
837;DHT22;400;53.550;9.932;2022-10-31T03:02:44;14.90;99.90
837;DHT22;400;53.550;9.932;2022-10-31T03:05:24;14.80;99.90
837;DHT22;400;53.550;9.932;2022-10-31T03:07:57;14.70;99.90
837;DHT22;400;53.550;9.932;2022-10-31T03:10:35;14.70;99.90
837;DHT22;400;53.550;9.932;2022-10-31T03:13:09;14.60;99.90
837;DHT22;400;53.550;9.932;2022-10-31T03:15:39;14.60;99.90
837;DHT22;400;53.550;9.932;2022-10-31T03:18:10;14.50;99.90
837;DHT22;400;53.550;9.932;2022-10-31T03:20:41;14.50;99.90
837;DHT22;400;53.550;9.932;2022-10-31T03:23:13;14.50;99.90
837;DHT22;400;53.550;9.932;2022-10-31T03:25:42;14.60;99.90
837;DHT22;400;53.550;9.932;2022-10-31T03:28:12;14.50;99.90
837;DHT22;400;53.550;9.932;2022-10-31T03:30:42;14.50;99.90
837;DHT22;400;53.550;9.932;2022-10-31T03:33:16;14.50;99.90
837;DHT22;400;53.550;9.932;2022-10-31T03:35:46;14.50;99.90
837;DHT22;400;53.550;9.932;2022-10-31T03:38:15;14.40;99.90
837;DHT22;400;53.550;9.932;2022-10-31T03:40:44;14.50;99.90
837;DHT22;400;53.550;9.932;2022-10-31T03:43:16;14.50;99.90
837;DHT22;400;53.550;9.932;2022-10-31T03:45:46;14.40;99.90
837;DHT22;400;53.550;9.932;2022-10-31T03:48:16;14.30;99.90
837;DHT22;400;53.550;9.932;2022-10-31T03:50:50;14.40;99.90
837;DHT22;400;53.550;9.932;2022-10-31T03:53:24;14.30;99.90
837;DHT22;400;53.550;9.932;2022-10-31T03:55:55;14.40;99.90
837;DHT22;400;53.550;9.932;2022-10-31T03:58:28;14.30;99.90
837;DHT22;400;53.550;9.932;2022-10-31T04:01:00;14.40;99.90
837;DHT22;400;53.550;9.932;2022-10-31T04:03:31;14.40;99.90
837;DHT22;400;53.550;9.932;2022-10-31T04:06:04;14.40;99.90
837;DHT22;400;53.550;9.932;2022-10-31T04:08:36;14.40;99.90
837;DHT22;400;53.550;9.932;2022-10-31T04:11:06;14.50;99.90
837;DHT22;400;53.550;9.932;2022-10-31T04:13:35;14.60;99.90
837;DHT22;400;53.550;9.932;2022-10-31T04:16:04;14.60;99.90
837;DHT22;400;53.550;9.932;2022-10-31T04:18:33;14.60;99.90
837;DHT22;400;53.550;9.932;2022-10-31T04:21:01;14.60;99.90
837;DHT22;400;53.550;9.932;2022-10-31T04:23:29;14.60;99.90
837;DHT22;400;53.550;9.932;2022-10-31T04:25:56;14.60;99.90
837;DHT22;400;53.550;9.932;2022-10-31T04:28:23;14.60;99.90
837;DHT22;400;53.550;9.932;2022-10-31T04:30:49;14.70;99.90
837;DHT22;400;53.550;9.932;2022-10-31T04:33:17;14.70;99.90
837;DHT22;400;53.550;9.932;2022-10-31T04:35:47;14.70;99.90
837;DHT22;400;53.550;9.932;2022-10-31T04:38:17;14.80;99.90
837;DHT22;400;53.550;9.932;2022-10-31T04:40:45;14.70;99.90
837;DHT22;400;53.550;9.932;2022-10-31T04:43:11;14.70;99.90
837;DHT22;400;53.550;9.932;2022-10-31T04:45:38;14.70;99.90
837;DHT22;400;53.550;9.932;2022-10-31T04:48:06;14.60;99.90
837;DHT22;400;53.550;9.932;2022-10-31T04:50:32;14.60;99.90
837;DHT22;400;53.550;9.932;2022-10-31T04:53:00;14.50;99.90
837;DHT22;400;53.550;9.932;2022-10-31T04:55:27;14.40;99.90
837;DHT22;400;53.550;9.932;2022-10-31T04:57:54;14.30;99.90
837;DHT22;400;53.550;9.932;2022-10-31T05:00:22;14.30;99.90
837;DHT22;400;53.550;9.932;2022-10-31T05:02:50;14.30;99.90
837;DHT22;400;53.550;9.932;2022-10-31T05:05:18;14.30;99.90
837;DHT22;400;53.550;9.932;2022-10-31T05:07:47;14.20;99.90
837;DHT22;400;53.550;9.932;2022-10-31T05:10:16;14.30;99.90
837;DHT22;400;53.550;9.932;2022-10-31T05:12:47;14.20;99.90
837;DHT22;400;53.550;9.932;2022-10-31T05:15:15;14.20;99.90
837;DHT22;400;53.550;9.932;2022-10-31T05:17:43;14.30;99.90
837;DHT22;400;53.550;9.932;2022-10-31T05:20:11;14.30;99.90
837;DHT22;400;53.550;9.932;2022-10-31T05:22:42;14.30;99.90
837;DHT22;400;53.550;9.932;2022-10-31T05:25:09;14.30;99.90
837;DHT22;400;53.550;9.932;2022-10-31T05:27:44;14.30;99.90
837;DHT22;400;53.550;9.932;2022-10-31T05:30:15;14.30;99.90
837;DHT22;400;53.550;9.932;2022-10-31T05:32:45;14.20;99.90
837;DHT22;400;53.550;9.932;2022-10-31T05:35:15;14.20;99.90
837;DHT22;400;53.550;9.932;2022-10-31T05:37:42;14.20;99.90
837;DHT22;400;53.550;9.932;2022-10-31T05:40:15;14.20;99.90
837;DHT22;400;53.550;9.932;2022-10-31T05:42:44;14.30;99.90
837;DHT22;400;53.550;9.932;2022-10-31T05:45:12;14.30;99.90
837;DHT22;400;53.550;9.932;2022-10-31T05:47:40;14.30;99.90
837;DHT22;400;53.550;9.932;2022-10-31T05:50:09;14.30;99.90
837;DHT22;400;53.550;9.932;2022-10-31T05:52:36;14.30;99.90
837;DHT22;400;53.550;9.932;2022-10-31T05:55:03;14.40;99.90
837;DHT22;400;53.550;9.932;2022-10-31T05:57:32;14.40;99.90
837;DHT22;400;53.550;9.932;2022-10-31T06:00:03;14.50;99.90
837;DHT22;400;53.550;9.932;2022-10-31T06:02:30;14.60;99.90
837;DHT22;400;53.550;9.932;2022-10-31T06:04:59;14.50;99.90
837;DHT22;400;53.550;9.932;2022-10-31T06:07:26;14.50;99.90
837;DHT22;400;53.550;9.932;2022-10-31T06:09:53;14.50;99.90
837;DHT22;400;53.550;9.932;2022-10-31T06:12:20;14.60;99.90
837;DHT22;400;53.550;9.932;2022-10-31T06:14:49;14.70;99.90
837;DHT22;400;53.550;9.932;2022-10-31T06:17:17;14.80;99.90
837;DHT22;400;53.550;9.932;2022-10-31T06:19:47;14.90;99.90
837;DHT22;400;53.550;9.932;2022-10-31T06:22:14;14.90;99.90
837;DHT22;400;53.550;9.932;2022-10-31T06:24:41;14.70;99.90
837;DHT22;400;53.550;9.932;2022-10-31T06:27:07;14.60;99.90
837;DHT22;400;53.550;9.932;2022-10-31T06:29:34;14.40;99.90
837;DHT22;400;53.550;9.932;2022-10-31T06:32:02;14.30;99.90
837;DHT22;400;53.550;9.932;2022-10-31T06:34:31;14.20;99.90
837;DHT22;400;53.550;9.932;2022-10-31T06:36:58;14.40;99.90
837;DHT22;400;53.550;9.932;2022-10-31T06:39:25;14.30;99.90
837;DHT22;400;53.550;9.932;2022-10-31T06:41:51;14.40;99.90
837;DHT22;400;53.550;9.932;2022-10-31T06:44:18;14.50;99.90
837;DHT22;400;53.550;9.932;2022-10-31T06:46:46;14.60;99.90
837;DHT22;400;53.550;9.932;2022-10-31T06:49:13;14.70;99.90
837;DHT22;400;53.550;9.932;2022-10-31T06:51:42;14.80;99.90
837;DHT22;400;53.550;9.932;2022-10-31T06:54:09;14.70;99.90
837;DHT22;400;53.550;9.932;2022-10-31T06:56:36;14.80;99.90
837;DHT22;400;53.550;9.932;2022-10-31T06:59:06;14.80;99.90
837;DHT22;400;53.550;9.932;2022-10-31T07:01:33;14.90;99.90
837;DHT22;400;53.550;9.932;2022-10-31T07:03:59;14.90;99.90
837;DHT22;400;53.550;9.932;2022-10-31T07:06:28;14.70;99.90
837;DHT22;400;53.550;9.932;2022-10-31T07:08:56;14.70;99.90
837;DHT22;400;53.550;9.932;2022-10-31T07:11:23;14.70;99.90
837;DHT22;400;53.550;9.932;2022-10-31T07:13:49;14.70;99.90
837;DHT22;400;53.550;9.932;2022-10-31T07:16:16;14.80;99.90
837;DHT22;400;53.550;9.932;2022-10-31T07:18:43;14.80;99.90
837;DHT22;400;53.550;9.932;2022-10-31T07:21:11;15.00;99.90
837;DHT22;400;53.550;9.932;2022-10-31T07:23:38;14.90;99.90
837;DHT22;400;53.550;9.932;2022-10-31T07:26:07;15.00;99.90
837;DHT22;400;53.550;9.932;2022-10-31T07:28:35;14.80;99.90
837;DHT22;400;53.550;9.932;2022-10-31T07:31:06;14.50;99.90
837;DHT22;400;53.550;9.932;2022-10-31T07:33:32;14.40;99.90
837;DHT22;400;53.550;9.932;2022-10-31T07:36:00;14.30;99.90
837;DHT22;400;53.550;9.932;2022-10-31T07:38:26;14.20;99.90
837;DHT22;400;53.550;9.932;2022-10-31T07:40:53;14.30;99.90
837;DHT22;400;53.550;9.932;2022-10-31T07:43:21;14.40;99.90
837;DHT22;400;53.550;9.932;2022-10-31T07:45:50;14.50;99.90
837;DHT22;400;53.550;9.932;2022-10-31T07:48:18;14.60;99.90
837;DHT22;400;53.550;9.932;2022-10-31T07:50:48;14.70;99.90
837;DHT22;400;53.550;9.932;2022-10-31T07:53:15;14.70;99.90
837;DHT22;400;53.550;9.932;2022-10-31T07:55:42;14.60;99.90
837;DHT22;400;53.550;9.932;2022-10-31T07:58:11;14.40;99.90
837;DHT22;400;53.550;9.932;2022-10-31T08:00:41;14.30;99.90
837;DHT22;400;53.550;9.932;2022-10-31T08:03:09;14.20;99.90
837;DHT22;400;53.550;9.932;2022-10-31T08:05:36;14.00;99.90
837;DHT22;400;53.550;9.932;2022-10-31T08:08:04;14.00;99.90
837;DHT22;400;53.550;9.932;2022-10-31T08:10:32;13.90;99.90
837;DHT22;400;53.550;9.932;2022-10-31T08:13:00;14.00;99.90
837;DHT22;400;53.550;9.932;2022-10-31T08:15:28;14.10;99.90
837;DHT22;400;53.550;9.932;2022-10-31T08:17:56;14.20;99.90
837;DHT22;400;53.550;9.932;2022-10-31T08:20:24;14.00;99.90
837;DHT22;400;53.550;9.932;2022-10-31T08:22:55;14.20;99.90
837;DHT22;400;53.550;9.932;2022-10-31T08:25:23;14.40;99.90
837;DHT22;400;53.550;9.932;2022-10-31T08:27:52;14.50;99.90
837;DHT22;400;53.550;9.932;2022-10-31T08:30:25;14.60;99.90
837;DHT22;400;53.550;9.932;2022-10-31T08:33:04;14.60;99.90
837;DHT22;400;53.550;9.932;2022-10-31T08:35:33;14.80;99.90
837;DHT22;400;53.550;9.932;2022-10-31T08:38:00;14.90;99.90
837;DHT22;400;53.550;9.932;2022-10-31T08:40:29;15.10;99.90
837;DHT22;400;53.550;9.932;2022-10-31T08:42:58;15.10;99.90
837;DHT22;400;53.550;9.932;2022-10-31T08:45:26;15.10;99.90
837;DHT22;400;53.550;9.932;2022-10-31T08:47:57;15.20;99.90
837;DHT22;400;53.550;9.932;2022-10-31T08:50:27;15.30;99.90
837;DHT22;400;53.550;9.932;2022-10-31T08:53:00;15.20;99.90
837;DHT22;400;53.550;9.932;2022-10-31T08:55:32;15.20;99.90
837;DHT22;400;53.550;9.932;2022-10-31T08:57:59;15.40;99.90
837;DHT22;400;53.550;9.932;2022-10-31T09:00:33;15.40;99.90
837;DHT22;400;53.550;9.932;2022-10-31T09:03:15;15.30;99.90
837;DHT22;400;53.550;9.932;2022-10-31T09:06:03;15.30;99.90
837;DHT22;400;53.550;9.932;2022-10-31T09:08:36;15.40;99.90
837;DHT22;400;53.550;9.932;2022-10-31T09:11:07;15.40;99.90
837;DHT22;400;53.550;9.932;2022-10-31T09:13:35;15.50;99.90
837;DHT22;400;53.550;9.932;2022-10-31T09:16:05;15.60;99.90
837;DHT22;400;53.550;9.932;2022-10-31T09:18:32;15.60;99.90
837;DHT22;400;53.550;9.932;2022-10-31T09:21:00;15.70;99.90
837;DHT22;400;53.550;9.932;2022-10-31T09:23:31;15.70;99.90
837;DHT22;400;53.550;9.932;2022-10-31T09:26:04;15.80;99.90
837;DHT22;400;53.550;9.932;2022-10-31T09:28:40;15.80;99.90
837;DHT22;400;53.550;9.932;2022-10-31T09:31:14;15.80;99.90
837;DHT22;400;53.550;9.932;2022-10-31T09:33:43;15.90;99.90
837;DHT22;400;53.550;9.932;2022-10-31T09:36:18;15.90;99.90
837;DHT22;400;53.550;9.932;2022-10-31T09:38:50;16.00;99.90
837;DHT22;400;53.550;9.932;2022-10-31T09:41:24;15.90;99.90
837;DHT22;400;53.550;9.932;2022-10-31T09:43:57;16.00;99.90
837;DHT22;400;53.550;9.932;2022-10-31T09:46:31;16.00;99.90
837;DHT22;400;53.550;9.932;2022-10-31T09:49:21;16.00;99.90
837;DHT22;400;53.550;9.932;2022-10-31T09:51:57;15.90;99.90
837;DHT22;400;53.550;9.932;2022-10-31T09:54:30;16.00;99.90
837;DHT22;400;53.550;9.932;2022-10-31T09:56:59;15.90;99.90
837;DHT22;400;53.550;9.932;2022-10-31T09:59:33;15.80;99.90
837;DHT22;400;53.550;9.932;2022-10-31T10:02:04;15.90;99.90
837;DHT22;400;53.550;9.932;2022-10-31T10:04:40;16.00;99.90
837;DHT22;400;53.550;9.932;2022-10-31T10:07:29;16.00;99.90
837;DHT22;400;53.550;9.932;2022-10-31T10:09:57;16.10;99.90
837;DHT22;400;53.550;9.932;2022-10-31T10:12:37;16.10;99.90
837;DHT22;400;53.550;9.932;2022-10-31T10:15:23;16.10;99.90
837;DHT22;400;53.550;9.932;2022-10-31T10:17:57;16.10;99.90
837;DHT22;400;53.550;9.932;2022-10-31T10:20:31;16.20;99.90
837;DHT22;400;53.550;9.932;2022-10-31T10:23:17;16.20;99.90
837;DHT22;400;53.550;9.932;2022-10-31T10:25:55;16.10;99.90
837;DHT22;400;53.550;9.932;2022-10-31T10:28:26;16.10;99.90
837;DHT22;400;53.550;9.932;2022-10-31T10:30:59;16.10;99.90
837;DHT22;400;53.550;9.932;2022-10-31T10:33:30;16.20;99.90
837;DHT22;400;53.550;9.932;2022-10-31T10:36:03;16.20;99.90
837;DHT22;400;53.550;9.932;2022-10-31T10:38:37;16.20;99.90
837;DHT22;400;53.550;9.932;2022-10-31T10:41:11;16.30;99.90
837;DHT22;400;53.550;9.932;2022-10-31T10:43:43;16.30;99.90
837;DHT22;400;53.550;9.932;2022-10-31T10:46:21;16.30;99.90
837;DHT22;400;53.550;9.932;2022-10-31T10:49:17;16.30;99.90
837;DHT22;400;53.550;9.932;2022-10-31T10:51:47;16.30;99.90
837;DHT22;400;53.550;9.932;2022-10-31T10:54:45;16.30;99.90
837;DHT22;400;53.550;9.932;2022-10-31T10:57:53;15.90;99.90
837;DHT22;400;53.550;9.932;2022-10-31T11:00:30;15.70;99.90
837;DHT22;400;53.550;9.932;2022-10-31T11:02:59;15.90;99.90
837;DHT22;400;53.550;9.932;2022-10-31T11:05:35;16.00;99.90
837;DHT22;400;53.550;9.932;2022-10-31T11:08:03;16.20;99.90
837;DHT22;400;53.550;9.932;2022-10-31T11:10:31;16.10;99.90
837;DHT22;400;53.550;9.932;2022-10-31T11:13:21;16.30;99.90
837;DHT22;400;53.550;9.932;2022-10-31T11:15:57;16.40;99.90
837;DHT22;400;53.550;9.932;2022-10-31T11:18:29;16.30;99.90
837;DHT22;400;53.550;9.932;2022-10-31T11:21:00;16.40;99.90
837;DHT22;400;53.550;9.932;2022-10-31T11:23:32;16.50;99.90
837;DHT22;400;53.550;9.932;2022-10-31T11:26:04;16.50;99.90
837;DHT22;400;53.550;9.932;2022-10-31T11:28:33;16.50;99.90
837;DHT22;400;53.550;9.932;2022-10-31T11:31:08;16.40;99.90
837;DHT22;400;53.550;9.932;2022-10-31T11:33:47;16.50;99.90
837;DHT22;400;53.550;9.932;2022-10-31T11:36:20;16.50;99.90
837;DHT22;400;53.550;9.932;2022-10-31T11:38:51;16.40;99.90
837;DHT22;400;53.550;9.932;2022-10-31T11:41:27;16.50;99.90
837;DHT22;400;53.550;9.932;2022-10-31T11:43:58;16.50;99.90
837;DHT22;400;53.550;9.932;2022-10-31T11:46:35;16.60;99.90
837;DHT22;400;53.550;9.932;2022-10-31T11:49:15;16.50;99.90
837;DHT22;400;53.550;9.932;2022-10-31T11:51:49;16.50;99.90
837;DHT22;400;53.550;9.932;2022-10-31T11:54:25;16.50;99.90
837;DHT22;400;53.550;9.932;2022-10-31T11:56:55;16.60;99.90
837;DHT22;400;53.550;9.932;2022-10-31T11:59:26;16.60;99.90
837;DHT22;400;53.550;9.932;2022-10-31T12:01:58;16.50;99.90
837;DHT22;400;53.550;9.932;2022-10-31T12:04:46;16.60;99.90
837;DHT22;400;53.550;9.932;2022-10-31T12:07:16;16.70;99.90
837;DHT22;400;53.550;9.932;2022-10-31T12:09:43;16.80;99.90
837;DHT22;400;53.550;9.932;2022-10-31T12:15:29;16.60;99.90
837;DHT22;400;53.550;9.932;2022-10-31T12:18:11;16.70;99.90
837;DHT22;400;53.550;9.932;2022-10-31T12:20:53;16.70;99.90
837;DHT22;400;53.550;9.932;2022-10-31T12:23:28;16.70;99.90
837;DHT22;400;53.550;9.932;2022-10-31T12:26:07;16.70;99.90
837;DHT22;400;53.550;9.932;2022-10-31T12:28:54;16.70;99.90
837;DHT22;400;53.550;9.932;2022-10-31T12:31:36;16.70;99.90
837;DHT22;400;53.550;9.932;2022-10-31T12:34:35;16.80;99.90
837;DHT22;400;53.550;9.932;2022-10-31T12:37:13;16.80;99.90
837;DHT22;400;53.550;9.932;2022-10-31T12:39:44;16.90;99.90
837;DHT22;400;53.550;9.932;2022-10-31T12:42:26;16.90;99.90
837;DHT22;400;53.550;9.932;2022-10-31T12:45:11;16.90;99.90
837;DHT22;400;53.550;9.932;2022-10-31T12:47:50;17.00;99.90
837;DHT22;400;53.550;9.932;2022-10-31T12:50:34;17.00;99.90
837;DHT22;400;53.550;9.932;2022-10-31T12:53:17;17.00;99.90
837;DHT22;400;53.550;9.932;2022-10-31T12:55:58;17.00;99.90
837;DHT22;400;53.550;9.932;2022-10-31T12:58:44;17.00;99.90
837;DHT22;400;53.550;9.932;2022-10-31T13:01:20;16.90;99.90
837;DHT22;400;53.550;9.932;2022-10-31T13:03:55;17.00;99.90
837;DHT22;400;53.550;9.932;2022-10-31T13:06:30;17.00;99.90
837;DHT22;400;53.550;9.932;2022-10-31T13:09:04;16.90;99.90
837;DHT22;400;53.550;9.932;2022-10-31T13:11:36;16.90;99.90
837;DHT22;400;53.550;9.932;2022-10-31T13:14:07;16.90;99.90
837;DHT22;400;53.550;9.932;2022-10-31T13:16:42;16.90;99.90
837;DHT22;400;53.550;9.932;2022-10-31T13:19:15;16.90;99.90
837;DHT22;400;53.550;9.932;2022-10-31T13:21:55;16.80;99.90
837;DHT22;400;53.550;9.932;2022-10-31T13:24:31;16.80;99.90
837;DHT22;400;53.550;9.932;2022-10-31T13:27:02;16.80;99.90
837;DHT22;400;53.550;9.932;2022-10-31T13:29:33;16.70;99.90
837;DHT22;400;53.550;9.932;2022-10-31T13:32:06;16.70;99.90
837;DHT22;400;53.550;9.932;2022-10-31T13:34:35;16.60;99.90
837;DHT22;400;53.550;9.932;2022-10-31T13:37:12;16.70;99.90
837;DHT22;400;53.550;9.932;2022-10-31T13:40:07;16.80;99.90
837;DHT22;400;53.550;9.932;2022-10-31T13:42:52;16.70;99.90
837;DHT22;400;53.550;9.932;2022-10-31T13:45:26;16.80;99.90
837;DHT22;400;53.550;9.932;2022-10-31T13:48:20;16.80;99.90
837;DHT22;400;53.550;9.932;2022-10-31T13:51:00;16.80;99.90
837;DHT22;400;53.550;9.932;2022-10-31T13:53:40;16.80;99.90
837;DHT22;400;53.550;9.932;2022-10-31T13:56:18;16.70;99.90
837;DHT22;400;53.550;9.932;2022-10-31T13:59:13;16.70;99.90
837;DHT22;400;53.550;9.932;2022-10-31T14:01:50;16.80;99.90
837;DHT22;400;53.550;9.932;2022-10-31T14:04:48;16.80;99.90
837;DHT22;400;53.550;9.932;2022-10-31T14:07:23;16.80;99.90
837;DHT22;400;53.550;9.932;2022-10-31T14:10:16;16.90;99.90
837;DHT22;400;53.550;9.932;2022-10-31T14:12:52;16.80;99.90
837;DHT22;400;53.550;9.932;2022-10-31T14:15:22;16.90;99.90
837;DHT22;400;53.550;9.932;2022-10-31T14:17:52;16.90;99.90
837;DHT22;400;53.550;9.932;2022-10-31T14:20:39;16.90;99.90
837;DHT22;400;53.550;9.932;2022-10-31T14:23:37;16.90;99.90
837;DHT22;400;53.550;9.932;2022-10-31T14:26:29;16.80;99.90
837;DHT22;400;53.550;9.932;2022-10-31T14:28:59;16.90;99.90
837;DHT22;400;53.550;9.932;2022-10-31T14:31:31;16.90;99.90
837;DHT22;400;53.550;9.932;2022-10-31T14:34:17;16.80;99.90
837;DHT22;400;53.550;9.932;2022-10-31T14:39:57;16.70;99.90
837;DHT22;400;53.550;9.932;2022-10-31T14:42:36;16.70;99.90
837;DHT22;400;53.550;9.932;2022-10-31T14:45:26;16.70;99.90
837;DHT22;400;53.550;9.932;2022-10-31T14:48:08;16.70;99.90
837;DHT22;400;53.550;9.932;2022-10-31T14:50:48;16.70;99.90
837;DHT22;400;53.550;9.932;2022-10-31T14:53:35;16.70;99.90
837;DHT22;400;53.550;9.932;2022-10-31T14:56:10;16.70;99.90
837;DHT22;400;53.550;9.932;2022-10-31T14:58:45;16.60;99.90
837;DHT22;400;53.550;9.932;2022-10-31T15:01:21;16.60;99.90
837;DHT22;400;53.550;9.932;2022-10-31T15:03:52;16.60;99.90
837;DHT22;400;53.550;9.932;2022-10-31T15:06:23;16.60;99.90
837;DHT22;400;53.550;9.932;2022-10-31T15:08:54;16.50;99.90
837;DHT22;400;53.550;9.932;2022-10-31T15:11:22;16.50;99.90
837;DHT22;400;53.550;9.932;2022-10-31T15:13:52;16.50;99.90
837;DHT22;400;53.550;9.932;2022-10-31T15:16:24;16.50;99.90
837;DHT22;400;53.550;9.932;2022-10-31T15:18:54;16.50;99.90
837;DHT22;400;53.550;9.932;2022-10-31T15:21:24;16.50;99.90
837;DHT22;400;53.550;9.932;2022-10-31T15:24:00;16.30;99.90
837;DHT22;400;53.550;9.932;2022-10-31T15:26:39;16.30;99.90
837;DHT22;400;53.550;9.932;2022-10-31T15:29:15;16.30;99.90
837;DHT22;400;53.550;9.932;2022-10-31T15:31:52;16.30;99.90
837;DHT22;400;53.550;9.932;2022-10-31T15:34:26;16.30;99.90
837;DHT22;400;53.550;9.932;2022-10-31T15:36:53;16.20;99.90
837;DHT22;400;53.550;9.932;2022-10-31T15:39:22;16.10;99.90
837;DHT22;400;53.550;9.932;2022-10-31T15:41:51;16.10;99.90
837;DHT22;400;53.550;9.932;2022-10-31T15:44:21;16.10;99.90
837;DHT22;400;53.550;9.932;2022-10-31T15:46:57;16.10;99.90
837;DHT22;400;53.550;9.932;2022-10-31T15:49:37;16.10;99.90
837;DHT22;400;53.550;9.932;2022-10-31T15:52:11;16.10;99.90
837;DHT22;400;53.550;9.932;2022-10-31T15:54:46;16.00;99.90
837;DHT22;400;53.550;9.932;2022-10-31T15:57:21;16.00;99.90
837;DHT22;400;53.550;9.932;2022-10-31T15:59:49;16.00;99.90
837;DHT22;400;53.550;9.932;2022-10-31T16:02:21;16.00;99.90
837;DHT22;400;53.550;9.932;2022-10-31T16:04:57;16.00;99.90
837;DHT22;400;53.550;9.932;2022-10-31T16:07:27;16.00;99.90
837;DHT22;400;53.550;9.932;2022-10-31T16:09:58;16.00;99.90
837;DHT22;400;53.550;9.932;2022-10-31T16:12:29;15.90;99.90
837;DHT22;400;53.550;9.932;2022-10-31T16:14:58;15.90;99.90
837;DHT22;400;53.550;9.932;2022-10-31T16:17:28;15.90;99.90
837;DHT22;400;53.550;9.932;2022-10-31T16:19:58;15.90;99.90
837;DHT22;400;53.550;9.932;2022-10-31T16:22:30;15.90;99.90
837;DHT22;400;53.550;9.932;2022-10-31T16:25:08;15.90;99.90
837;DHT22;400;53.550;9.932;2022-10-31T16:27:47;15.80;99.90
837;DHT22;400;53.550;9.932;2022-10-31T16:30:35;15.90;99.90
837;DHT22;400;53.550;9.932;2022-10-31T16:33:10;15.80;99.90
837;DHT22;400;53.550;9.932;2022-10-31T16:35:47;15.80;99.90
837;DHT22;400;53.550;9.932;2022-10-31T16:38:15;15.80;99.90
837;DHT22;400;53.550;9.932;2022-10-31T16:40:51;15.80;99.90
837;DHT22;400;53.550;9.932;2022-10-31T16:43:24;15.80;99.90
837;DHT22;400;53.550;9.932;2022-10-31T16:45:55;15.80;99.90
837;DHT22;400;53.550;9.932;2022-10-31T16:48:26;15.90;99.90
837;DHT22;400;53.550;9.932;2022-10-31T16:51:04;15.80;99.90
837;DHT22;400;53.550;9.932;2022-10-31T16:53:33;15.80;99.90
837;DHT22;400;53.550;9.932;2022-10-31T16:56:04;15.80;99.90
837;DHT22;400;53.550;9.932;2022-10-31T16:58:34;15.80;99.90
837;DHT22;400;53.550;9.932;2022-10-31T17:01:05;15.70;99.90
837;DHT22;400;53.550;9.932;2022-10-31T17:03:35;15.70;99.90
837;DHT22;400;53.550;9.932;2022-10-31T17:06:04;15.80;99.90
837;DHT22;400;53.550;9.932;2022-10-31T17:08:39;15.70;99.90
837;DHT22;400;53.550;9.932;2022-10-31T17:11:14;15.70;99.90
837;DHT22;400;53.550;9.932;2022-10-31T17:13:45;15.70;99.90
837;DHT22;400;53.550;9.932;2022-10-31T17:16:13;15.60;99.90